sensor_id;sensor_type;location;lat;lon;timestamp;temperature;humidity
15646;DHT22;7922;43.622;1.476;2022-08-01T00:01:36;25.00;99.90
15646;DHT22;7922;43.622;1.476;2022-08-01T00:04:02;24.90;99.90
15646;DHT22;7922;43.622;1.476;2022-08-01T00:06:28;24.90;99.90
15646;DHT22;7922;43.622;1.476;2022-08-01T00:08:54;24.90;99.90
15646;DHT22;7922;43.622;1.476;2022-08-01T00:11:20;24.80;99.90
15646;DHT22;7922;43.622;1.476;2022-08-01T00:13:45;24.80;99.90
15646;DHT22;7922;43.622;1.476;2022-08-01T00:16:11;24.70;99.90
15646;DHT22;7922;43.622;1.476;2022-08-01T00:18:37;24.70;99.90
15646;DHT22;7922;43.622;1.476;2022-08-01T00:21:04;24.70;99.90
15646;DHT22;7922;43.622;1.476;2022-08-01T00:23:30;24.70;99.90
15646;DHT22;7922;43.622;1.476;2022-08-01T00:25:56;24.60;99.90
15646;DHT22;7922;43.622;1.476;2022-08-01T00:28:22;24.60;99.90
15646;DHT22;7922;43.622;1.476;2022-08-01T00:30:48;24.60;99.90
15646;DHT22;7922;43.622;1.476;2022-08-01T00:33:14;24.60;99.90
15646;DHT22;7922;43.622;1.476;2022-08-01T00:35:39;24.50;99.90
15646;DHT22;7922;43.622;1.476;2022-08-01T00:38:05;24.50;99.90
15646;DHT22;7922;43.622;1.476;2022-08-01T00:40:31;24.50;99.90
15646;DHT22;7922;43.622;1.476;2022-08-01T00:42:57;24.50;99.90
15646;DHT22;7922;43.622;1.476;2022-08-01T00:45:22;24.50;99.90
15646;DHT22;7922;43.622;1.476;2022-08-01T00:47:49;24.50;99.90
15646;DHT22;7922;43.622;1.476;2022-08-01T00:50:15;24.50;99.90
15646;DHT22;7922;43.622;1.476;2022-08-01T00:52:41;24.50;99.90
15646;DHT22;7922;43.622;1.476;2022-08-01T00:55:08;24.40;99.90
15646;DHT22;7922;43.622;1.476;2022-08-01T00:57:34;24.40;99.90
15646;DHT22;7922;43.622;1.476;2022-08-01T01:00:01;24.40;99.90
15646;DHT22;7922;43.622;1.476;2022-08-01T01:02:27;24.30;99.90
15646;DHT22;7922;43.622;1.476;2022-08-01T01:04:52;24.30;99.90
15646;DHT22;7922;43.622;1.476;2022-08-01T01:07:32;24.30;99.90
15646;DHT22;7922;43.622;1.476;2022-08-01T01:10:05;24.20;99.90
15646;DHT22;7922;43.622;1.476;2022-08-01T01:15:15;24.20;99.90
15646;DHT22;7922;43.622;1.476;2022-08-01T01:17:48;24.20;99.90
15646;DHT22;7922;43.622;1.476;2022-08-01T01:20:17;24.10;99.90
15646;DHT22;7922;43.622;1.476;2022-08-01T01:28:16;24.00;99.90
15646;DHT22;7922;43.622;1.476;2022-08-01T01:30:47;24.00;99.90
15646;DHT22;7922;43.622;1.476;2022-08-01T01:33:14;23.90;99.90
15646;DHT22;7922;43.622;1.476;2022-08-01T01:35:44;23.90;99.90
15646;DHT22;7922;43.622;1.476;2022-08-01T01:40:42;23.80;99.90
15646;DHT22;7922;43.622;1.476;2022-08-01T01:43:10;23.80;99.90
15646;DHT22;7922;43.622;1.476;2022-08-01T01:45:37;23.80;99.90
15646;DHT22;7922;43.622;1.476;2022-08-01T01:48:05;23.80;99.90
15646;DHT22;7922;43.622;1.476;2022-08-01T01:50:32;23.70;99.90
15646;DHT22;7922;43.622;1.476;2022-08-01T01:52:59;23.70;99.90
15646;DHT22;7922;43.622;1.476;2022-08-01T01:55:27;23.70;99.90
15646;DHT22;7922;43.622;1.476;2022-08-01T01:57:54;23.60;99.90
15646;DHT22;7922;43.622;1.476;2022-08-01T02:00:21;23.50;99.90
15646;DHT22;7922;43.622;1.476;2022-08-01T02:02:48;23.50;99.90
15646;DHT22;7922;43.622;1.476;2022-08-01T02:05:15;23.50;99.90
15646;DHT22;7922;43.622;1.476;2022-08-01T02:07:41;23.50;99.90
15646;DHT22;7922;43.622;1.476;2022-08-01T02:10:10;23.40;99.90
15646;DHT22;7922;43.622;1.476;2022-08-01T02:12:40;23.50;99.90
15646;DHT22;7922;43.622;1.476;2022-08-01T02:15:07;23.40;99.90
15646;DHT22;7922;43.622;1.476;2022-08-01T02:17:37;23.40;99.90
15646;DHT22;7922;43.622;1.476;2022-08-01T02:20:05;23.40;99.90
15646;DHT22;7922;43.622;1.476;2022-08-01T02:22:42;23.30;99.90
15646;DHT22;7922;43.622;1.476;2022-08-01T02:25:22;23.30;99.90
15646;DHT22;7922;43.622;1.476;2022-08-01T02:28:01;23.20;99.90
15646;DHT22;7922;43.622;1.476;2022-08-01T02:30:34;23.20;99.90
15646;DHT22;7922;43.622;1.476;2022-08-01T02:33:21;23.20;99.90
15646;DHT22;7922;43.622;1.476;2022-08-01T02:35:50;23.10;99.90
15646;DHT22;7922;43.622;1.476;2022-08-01T02:38:18;23.10;99.90
15646;DHT22;7922;43.622;1.476;2022-08-01T02:40:47;23.00;99.90
15646;DHT22;7922;43.622;1.476;2022-08-01T02:43:18;23.00;99.90
15646;DHT22;7922;43.622;1.476;2022-08-01T02:45:51;23.00;99.90
15646;DHT22;7922;43.622;1.476;2022-08-01T02:48:19;22.90;99.90
15646;DHT22;7922;43.622;1.476;2022-08-01T02:50:48;22.90;99.90
15646;DHT22;7922;43.622;1.476;2022-08-01T02:53:16;22.90;99.90
15646;DHT22;7922;43.622;1.476;2022-08-01T02:55:44;22.90;99.90
15646;DHT22;7922;43.622;1.476;2022-08-01T02:58:14;22.80;99.90
15646;DHT22;7922;43.622;1.476;2022-08-01T03:00:42;22.80;99.90
15646;DHT22;7922;43.622;1.476;2022-08-01T03:03:09;22.80;99.90
15646;DHT22;7922;43.622;1.476;2022-08-01T03:05:36;22.80;99.90
15646;DHT22;7922;43.622;1.476;2022-08-01T03:08:06;22.70;99.90
15646;DHT22;7922;43.622;1.476;2022-08-01T03:10:35;22.70;99.90
15646;DHT22;7922;43.622;1.476;2022-08-01T03:13:03;22.60;99.90
15646;DHT22;7922;43.622;1.476;2022-08-01T03:15:33;22.70;99.90
15646;DHT22;7922;43.622;1.476;2022-08-01T03:18:01;22.60;99.90
15646;DHT22;7922;43.622;1.476;2022-08-01T03:20:29;22.50;99.90
15646;DHT22;7922;43.622;1.476;2022-08-01T03:22:56;22.50;99.90
15646;DHT22;7922;43.622;1.476;2022-08-01T03:25:24;22.40;99.90
15646;DHT22;7922;43.622;1.476;2022-08-01T03:27:54;22.50;99.90
15646;DHT22;7922;43.622;1.476;2022-08-01T03:30:25;22.40;99.90
15646;DHT22;7922;43.622;1.476;2022-08-01T03:32:52;22.40;99.90
15646;DHT22;7922;43.622;1.476;2022-08-01T03:35:18;22.40;99.90
15646;DHT22;7922;43.622;1.476;2022-08-01T03:37:49;22.30;99.90
15646;DHT22;7922;43.622;1.476;2022-08-01T03:40:31;22.30;99.90
15646;DHT22;7922;43.622;1.476;2022-08-01T03:43:04;22.30;99.90
15646;DHT22;7922;43.622;1.476;2022-08-01T03:45:35;22.20;99.90
15646;DHT22;7922;43.622;1.476;2022-08-01T03:48:12;22.20;99.90
15646;DHT22;7922;43.622;1.476;2022-08-01T03:50:46;22.10;99.90
15646;DHT22;7922;43.622;1.476;2022-08-01T03:53:14;22.10;99.90
15646;DHT22;7922;43.622;1.476;2022-08-01T03:55:42;22.10;99.90
15646;DHT22;7922;43.622;1.476;2022-08-01T03:58:09;22.00;99.90
15646;DHT22;7922;43.622;1.476;2022-08-01T04:00:39;22.00;99.90
15646;DHT22;7922;43.622;1.476;2022-08-01T04:03:10;22.00;99.90
15646;DHT22;7922;43.622;1.476;2022-08-01T04:05:36;21.90;99.90
15646;DHT22;7922;43.622;1.476;2022-08-01T04:08:02;21.90;99.90
15646;DHT22;7922;43.622;1.476;2022-08-01T04:10:29;21.90;99.90
15646;DHT22;7922;43.622;1.476;2022-08-01T04:12:55;21.90;99.90
15646;DHT22;7922;43.622;1.476;2022-08-01T04:15:21;21.80;99.90
15646;DHT22;7922;43.622;1.476;2022-08-01T04:17:47;21.80;99.90
15646;DHT22;7922;43.622;1.476;2022-08-01T04:20:13;21.70;99.90
15646;DHT22;7922;43.622;1.476;2022-08-01T04:22:39;21.70;99.90
15646;DHT22;7922;43.622;1.476;2022-08-01T04:25:19;21.70;99.90
15646;DHT22;7922;43.622;1.476;2022-08-01T04:27:49;21.70;99.90
15646;DHT22;7922;43.622;1.476;2022-08-01T04:30:18;21.70;99.90
15646;DHT22;7922;43.622;1.476;2022-08-01T04:32:46;21.70;99.90
15646;DHT22;7922;43.622;1.476;2022-08-01T04:35:14;21.70;99.90
15646;DHT22;7922;43.622;1.476;2022-08-01T04:37:45;21.70;99.90
15646;DHT22;7922;43.622;1.476;2022-08-01T04:40:13;21.60;99.90
15646;DHT22;7922;43.622;1.476;2022-08-01T04:42:40;21.60;99.90
15646;DHT22;7922;43.622;1.476;2022-08-01T04:45:07;21.50;99.90
15646;DHT22;7922;43.622;1.476;2022-08-01T04:47:35;21.50;99.90
15646;DHT22;7922;43.622;1.476;2022-08-01T04:50:05;21.50;99.90
15646;DHT22;7922;43.622;1.476;2022-08-01T04:52:37;21.50;99.90
15646;DHT22;7922;43.622;1.476;2022-08-01T04:55:04;21.50;99.90
15646;DHT22;7922;43.622;1.476;2022-08-01T04:57:39;21.40;99.90
15646;DHT22;7922;43.622;1.476;2022-08-01T05:00:07;21.40;99.90
15646;DHT22;7922;43.622;1.476;2022-08-01T05:02:33;21.30;99.90
15646;DHT22;7922;43.622;1.476;2022-08-01T05:04:59;21.40;99.90
15646;DHT22;7922;43.622;1.476;2022-08-01T05:07:24;21.40;99.90
15646;DHT22;7922;43.622;1.476;2022-08-01T05:09:51;21.40;99.90
15646;DHT22;7922;43.622;1.476;2022-08-01T05:12:17;21.30;99.90
15646;DHT22;7922;43.622;1.476;2022-08-01T05:14:42;21.40;99.90
15646;DHT22;7922;43.622;1.476;2022-08-01T05:17:08;21.40;99.90
15646;DHT22;7922;43.622;1.476;2022-08-01T05:19:36;21.50;99.90
15646;DHT22;7922;43.622;1.476;2022-08-01T05:22:07;21.60;99.90
15646;DHT22;7922;43.622;1.476;2022-08-01T05:24:37;21.60;99.90
15646;DHT22;7922;43.622;1.476;2022-08-01T05:27:04;21.60;99.90
15646;DHT22;7922;43.622;1.476;2022-08-01T05:29:30;21.70;99.90
15646;DHT22;7922;43.622;1.476;2022-08-01T05:31:56;21.70;99.90
15646;DHT22;7922;43.622;1.476;2022-08-01T05:34:23;21.70;99.90
15646;DHT22;7922;43.622;1.476;2022-08-01T05:36:48;21.70;99.90
15646;DHT22;7922;43.622;1.476;2022-08-01T05:39:14;21.70;99.90
15646;DHT22;7922;43.622;1.476;2022-08-01T05:41:41;21.70;99.90
15646;DHT22;7922;43.622;1.476;2022-08-01T05:44:07;21.70;99.90
15646;DHT22;7922;43.622;1.476;2022-08-01T05:46:35;21.60;99.90
15646;DHT22;7922;43.622;1.476;2022-08-01T05:49:02;21.60;99.90
15646;DHT22;7922;43.622;1.476;2022-08-01T05:51:28;21.60;99.90
15646;DHT22;7922;43.622;1.476;2022-08-01T05:53:54;21.70;99.90
15646;DHT22;7922;43.622;1.476;2022-08-01T05:56:21;21.70;99.90
15646;DHT22;7922;43.622;1.476;2022-08-01T05:58:47;21.70;99.90
15646;DHT22;7922;43.622;1.476;2022-08-01T06:01:13;21.70;99.90
15646;DHT22;7922;43.622;1.476;2022-08-01T06:03:39;21.90;99.90
15646;DHT22;7922;43.622;1.476;2022-08-01T06:06:05;21.80;99.90
15646;DHT22;7922;43.622;1.476;2022-08-01T06:08:31;21.90;99.90
15646;DHT22;7922;43.622;1.476;2022-08-01T06:10:57;21.70;99.90
15646;DHT22;7922;43.622;1.476;2022-08-01T06:13:23;21.80;99.90
15646;DHT22;7922;43.622;1.476;2022-08-01T06:15:49;22.00;99.90
15646;DHT22;7922;43.622;1.476;2022-08-01T06:18:15;22.10;99.90
15646;DHT22;7922;43.622;1.476;2022-08-01T06:20:41;22.10;99.90
15646;DHT22;7922;43.622;1.476;2022-08-01T06:23:07;22.20;99.90
15646;DHT22;7922;43.622;1.476;2022-08-01T06:25:33;22.10;99.90
15646;DHT22;7922;43.622;1.476;2022-08-01T06:27:59;22.20;99.90
15646;DHT22;7922;43.622;1.476;2022-08-01T06:30:25;22.10;99.90
15646;DHT22;7922;43.622;1.476;2022-08-01T06:32:51;22.30;99.90
15646;DHT22;7922;43.622;1.476;2022-08-01T06:35:18;22.30;99.90
15646;DHT22;7922;43.622;1.476;2022-08-01T06:37:43;22.10;99.90
15646;DHT22;7922;43.622;1.476;2022-08-01T06:40:13;22.20;99.90
15646;DHT22;7922;43.622;1.476;2022-08-01T06:42:39;22.40;99.90
15646;DHT22;7922;43.622;1.476;2022-08-01T06:45:07;22.40;99.90
15646;DHT22;7922;43.622;1.476;2022-08-01T06:47:33;22.70;99.90
15646;DHT22;7922;43.622;1.476;2022-08-01T06:49:59;22.70;99.90
15646;DHT22;7922;43.622;1.476;2022-08-01T06:52:25;22.70;99.90
15646;DHT22;7922;43.622;1.476;2022-08-01T06:54:51;22.70;99.90
15646;DHT22;7922;43.622;1.476;2022-08-01T06:57:17;22.90;99.90
15646;DHT22;7922;43.622;1.476;2022-08-01T06:59:43;22.80;99.90
15646;DHT22;7922;43.622;1.476;2022-08-01T07:02:08;22.80;99.90
15646;DHT22;7922;43.622;1.476;2022-08-01T07:04:34;23.00;99.90
15646;DHT22;7922;43.622;1.476;2022-08-01T07:07:00;23.10;99.90
15646;DHT22;7922;43.622;1.476;2022-08-01T07:09:26;23.30;99.90
15646;DHT22;7922;43.622;1.476;2022-08-01T07:11:53;23.30;99.90
15646;DHT22;7922;43.622;1.476;2022-08-01T07:14:20;23.10;99.90
15646;DHT22;7922;43.622;1.476;2022-08-01T07:16:45;23.00;99.90
15646;DHT22;7922;43.622;1.476;2022-08-01T07:19:11;23.10;99.90
15646;DHT22;7922;43.622;1.476;2022-08-01T07:21:37;23.40;99.90
15646;DHT22;7922;43.622;1.476;2022-08-01T07:24:04;23.50;99.90
15646;DHT22;7922;43.622;1.476;2022-08-01T07:26:30;23.50;99.90
15646;DHT22;7922;43.622;1.476;2022-08-01T07:28:56;23.60;99.90
15646;DHT22;7922;43.622;1.476;2022-08-01T07:31:22;23.60;99.90
15646;DHT22;7922;43.622;1.476;2022-08-01T07:33:48;23.60;99.90
15646;DHT22;7922;43.622;1.476;2022-08-01T07:36:15;23.70;99.90
15646;DHT22;7922;43.622;1.476;2022-08-01T07:38:41;23.60;99.90
15646;DHT22;7922;43.622;1.476;2022-08-01T07:41:07;23.70;99.90
15646;DHT22;7922;43.622;1.476;2022-08-01T07:43:32;23.70;99.90
15646;DHT22;7922;43.622;1.476;2022-08-01T07:45:58;24.00;99.90
15646;DHT22;7922;43.622;1.476;2022-08-01T07:48:24;24.10;99.90
15646;DHT22;7922;43.622;1.476;2022-08-01T07:50:51;24.10;99.90
15646;DHT22;7922;43.622;1.476;2022-08-01T07:53:17;23.90;99.90
15646;DHT22;7922;43.622;1.476;2022-08-01T07:55:43;23.90;99.90
15646;DHT22;7922;43.622;1.476;2022-08-01T07:58:08;24.00;99.90
15646;DHT22;7922;43.622;1.476;2022-08-01T08:00:34;24.10;99.90
15646;DHT22;7922;43.622;1.476;2022-08-01T08:02:59;24.30;99.90
15646;DHT22;7922;43.622;1.476;2022-08-01T08:05:28;24.60;99.90
15646;DHT22;7922;43.622;1.476;2022-08-01T08:07:54;24.60;99.90
15646;DHT22;7922;43.622;1.476;2022-08-01T08:10:21;24.50;99.90
15646;DHT22;7922;43.622;1.476;2022-08-01T08:12:46;24.70;99.90
15646;DHT22;7922;43.622;1.476;2022-08-01T08:15:14;24.80;99.90
15646;DHT22;7922;43.622;1.476;2022-08-01T08:17:39;24.80;99.90
15646;DHT22;7922;43.622;1.476;2022-08-01T08:20:07;25.00;99.90
15646;DHT22;7922;43.622;1.476;2022-08-01T08:22:33;24.90;99.90
15646;DHT22;7922;43.622;1.476;2022-08-01T08:24:59;24.90;99.90
15646;DHT22;7922;43.622;1.476;2022-08-01T08:27:26;24.90;99.90
15646;DHT22;7922;43.622;1.476;2022-08-01T08:29:52;25.00;99.90
15646;DHT22;7922;43.622;1.476;2022-08-01T08:32:17;25.30;99.90
15646;DHT22;7922;43.622;1.476;2022-08-01T08:34:43;25.30;99.90
15646;DHT22;7922;43.622;1.476;2022-08-01T08:37:09;25.40;99.90
15646;DHT22;7922;43.622;1.476;2022-08-01T08:39:35;25.50;99.90
15646;DHT22;7922;43.622;1.476;2022-08-01T08:42:04;25.40;99.90
15646;DHT22;7922;43.622;1.476;2022-08-01T08:44:31;25.50;99.90
15646;DHT22;7922;43.622;1.476;2022-08-01T08:46:58;25.60;99.90
15646;DHT22;7922;43.622;1.476;2022-08-01T08:49:28;25.70;99.90
15646;DHT22;7922;43.622;1.476;2022-08-01T08:52:01;25.60;99.90
15646;DHT22;7922;43.622;1.476;2022-08-01T08:54:28;25.60;99.90
15646;DHT22;7922;43.622;1.476;2022-08-01T08:56:55;25.80;99.90
15646;DHT22;7922;43.622;1.476;2022-08-01T08:59:21;26.10;99.90
15646;DHT22;7922;43.622;1.476;2022-08-01T09:01:47;26.20;99.90
15646;DHT22;7922;43.622;1.476;2022-08-01T09:04:13;26.10;99.90
15646;DHT22;7922;43.622;1.476;2022-08-01T09:06:39;26.10;99.90
15646;DHT22;7922;43.622;1.476;2022-08-01T09:09:07;26.30;99.90
15646;DHT22;7922;43.622;1.476;2022-08-01T09:11:34;26.40;99.90
15646;DHT22;7922;43.622;1.476;2022-08-01T09:14:11;26.60;99.90
15646;DHT22;7922;43.622;1.476;2022-08-01T09:16:43;26.80;99.90
15646;DHT22;7922;43.622;1.476;2022-08-01T09:19:19;26.50;99.90
15646;DHT22;7922;43.622;1.476;2022-08-01T09:21:59;26.60;99.90
15646;DHT22;7922;43.622;1.476;2022-08-01T09:24:27;26.80;99.90
15646;DHT22;7922;43.622;1.476;2022-08-01T09:26:53;26.80;99.90
15646;DHT22;7922;43.622;1.476;2022-08-01T09:29:25;27.00;99.90
15646;DHT22;7922;43.622;1.476;2022-08-01T09:31:51;27.10;99.90
15646;DHT22;7922;43.622;1.476;2022-08-01T09:34:25;27.20;99.90
15646;DHT22;7922;43.622;1.476;2022-08-01T09:36:53;27.30;99.90
15646;DHT22;7922;43.622;1.476;2022-08-01T09:39:27;27.30;99.90
15646;DHT22;7922;43.622;1.476;2022-08-01T09:41:54;27.30;99.90
15646;DHT22;7922;43.622;1.476;2022-08-01T09:44:40;27.40;99.90
15646;DHT22;7922;43.622;1.476;2022-08-01T09:47:07;27.50;99.90
15646;DHT22;7922;43.622;1.476;2022-08-01T09:49:37;27.70;99.90
15646;DHT22;7922;43.622;1.476;2022-08-01T09:52:21;27.70;99.90
15646;DHT22;7922;43.622;1.476;2022-08-01T09:54:56;27.80;99.90
15646;DHT22;7922;43.622;1.476;2022-08-01T09:57:22;27.70;99.90
15646;DHT22;7922;43.622;1.476;2022-08-01T09:59:51;27.80;99.90
15646;DHT22;7922;43.622;1.476;2022-08-01T10:02:37;27.90;99.90
15646;DHT22;7922;43.622;1.476;2022-08-01T10:05:06;27.80;99.90
15646;DHT22;7922;43.622;1.476;2022-08-01T10:07:32;27.90;99.90
15646;DHT22;7922;43.622;1.476;2022-08-01T10:10:15;27.80;99.90
15646;DHT22;7922;43.622;1.476;2022-08-01T10:12:42;27.70;99.90
15646;DHT22;7922;43.622;1.476;2022-08-01T10:15:09;27.70;99.90
15646;DHT22;7922;43.622;1.476;2022-08-01T10:17:38;27.90;99.90
15646;DHT22;7922;43.622;1.476;2022-08-01T10:20:06;28.20;99.90
15646;DHT22;7922;43.622;1.476;2022-08-01T10:22:34;28.30;99.90
15646;DHT22;7922;43.622;1.476;2022-08-01T10:25:03;28.40;99.90
15646;DHT22;7922;43.622;1.476;2022-08-01T10:27:29;28.30;99.90
15646;DHT22;7922;43.622;1.476;2022-08-01T10:30:02;28.30;99.90
15646;DHT22;7922;43.622;1.476;2022-08-01T10:32:33;28.20;99.90
15646;DHT22;7922;43.622;1.476;2022-08-01T10:35:00;28.30;99.90
15646;DHT22;7922;43.622;1.476;2022-08-01T10:37:26;28.30;99.90
15646;DHT22;7922;43.622;1.476;2022-08-01T10:39:53;28.50;99.90
15646;DHT22;7922;43.622;1.476;2022-08-01T10:42:19;28.70;99.90
15646;DHT22;7922;43.622;1.476;2022-08-01T10:44:47;28.80;99.90
15646;DHT22;7922;43.622;1.476;2022-08-01T10:47:19;28.80;99.90
15646;DHT22;7922;43.622;1.476;2022-08-01T10:49:50;28.80;99.90
15646;DHT22;7922;43.622;1.476;2022-08-01T10:52:17;29.10;99.90
15646;DHT22;7922;43.622;1.476;2022-08-01T10:54:43;29.30;99.90
15646;DHT22;7922;43.622;1.476;2022-08-01T10:57:10;29.20;99.90
15646;DHT22;7922;43.622;1.476;2022-08-01T10:59:48;29.10;99.90
15646;DHT22;7922;43.622;1.476;2022-08-01T11:02:29;29.20;99.90
15646;DHT22;7922;43.622;1.476;2022-08-01T11:05:02;29.30;99.90
15646;DHT22;7922;43.622;1.476;2022-08-01T11:07:47;29.30;99.90
15646;DHT22;7922;43.622;1.476;2022-08-01T11:10:24;29.30;99.90
15646;DHT22;7922;43.622;1.476;2022-08-01T11:12:51;29.40;99.90
15646;DHT22;7922;43.622;1.476;2022-08-01T11:15:19;29.50;99.90
15646;DHT22;7922;43.622;1.476;2022-08-01T11:17:54;29.30;99.90
15646;DHT22;7922;43.622;1.476;2022-08-01T11:20:27;29.30;99.90
15646;DHT22;7922;43.622;1.476;2022-08-01T11:30:44;29.60;99.90
15646;DHT22;7922;43.622;1.476;2022-08-01T11:33:10;29.70;99.90
15646;DHT22;7922;43.622;1.476;2022-08-01T11:35:37;29.80;99.90
15646;DHT22;7922;43.622;1.476;2022-08-01T11:38:24;29.90;99.90
15646;DHT22;7922;43.622;1.476;2022-08-01T11:41:25;30.10;99.90
15646;DHT22;7922;43.622;1.476;2022-08-01T11:44:12;30.10;99.90
15646;DHT22;7922;43.622;1.476;2022-08-01T11:54:42;30.10;99.90
15646;DHT22;7922;43.622;1.476;2022-08-01T11:59:56;30.40;99.90
15646;DHT22;7922;43.622;1.476;2022-08-01T12:02:28;30.40;99.90
15646;DHT22;7922;43.622;1.476;2022-08-01T12:07:31;30.60;99.90
15646;DHT22;7922;43.622;1.476;2022-08-01T12:10:09;30.50;99.90
15646;DHT22;7922;43.622;1.476;2022-08-01T12:12:36;30.40;99.90
15646;DHT22;7922;43.622;1.476;2022-08-01T12:15:07;30.60;99.90
15646;DHT22;7922;43.622;1.476;2022-08-01T12:17:44;30.80;99.90
15646;DHT22;7922;43.622;1.476;2022-08-01T12:20:14;30.70;99.90
15646;DHT22;7922;43.622;1.476;2022-08-01T12:22:41;31.00;99.90
15646;DHT22;7922;43.622;1.476;2022-08-01T12:27:33;30.80;99.90
15646;DHT22;7922;43.622;1.476;2022-08-01T12:29:59;30.90;99.90
15646;DHT22;7922;43.622;1.476;2022-08-01T12:32:29;31.00;99.90
15646;DHT22;7922;43.622;1.476;2022-08-01T12:35:00;30.80;99.90
15646;DHT22;7922;43.622;1.476;2022-08-01T12:37:26;31.10;99.90
15646;DHT22;7922;43.622;1.476;2022-08-01T12:39:52;31.40;99.90
15646;DHT22;7922;43.622;1.476;2022-08-01T12:42:19;31.20;99.90
15646;DHT22;7922;43.622;1.476;2022-08-01T12:44:47;31.20;99.80
15646;DHT22;7922;43.622;1.476;2022-08-01T12:47:14;31.20;99.40
15646;DHT22;7922;43.622;1.476;2022-08-01T12:49:41;31.20;99.60
15646;DHT22;7922;43.622;1.476;2022-08-01T12:52:08;31.20;98.60
15646;DHT22;7922;43.622;1.476;2022-08-01T12:55:05;31.20;98.20
15646;DHT22;7922;43.622;1.476;2022-08-01T12:57:32;31.40;98.20
15646;DHT22;7922;43.622;1.476;2022-08-01T13:00:18;31.30;98.20
15646;DHT22;7922;43.622;1.476;2022-08-01T13:02:47;31.50;97.90
15646;DHT22;7922;43.622;1.476;2022-08-01T13:05:14;31.40;97.30
15646;DHT22;7922;43.622;1.476;2022-08-01T13:07:45;31.20;97.00
15646;DHT22;7922;43.622;1.476;2022-08-01T13:10:11;31.20;96.70
15646;DHT22;7922;43.622;1.476;2022-08-01T13:12:39;31.20;96.50
15646;DHT22;7922;43.622;1.476;2022-08-01T13:15:22;31.30;95.30
15646;DHT22;7922;43.622;1.476;2022-08-01T13:17:50;31.50;95.20
15646;DHT22;7922;43.622;1.476;2022-08-01T13:20:28;31.60;94.00
15646;DHT22;7922;43.622;1.476;2022-08-01T13:22:54;31.60;94.30
15646;DHT22;7922;43.622;1.476;2022-08-01T13:25:20;31.60;96.10
15646;DHT22;7922;43.622;1.476;2022-08-01T13:27:46;31.50;95.50
15646;DHT22;7922;43.622;1.476;2022-08-01T13:30:18;31.80;96.40
15646;DHT22;7922;43.622;1.476;2022-08-01T13:33:04;31.70;95.80
15646;DHT22;7922;43.622;1.476;2022-08-01T13:35:30;31.70;95.60
15646;DHT22;7922;43.622;1.476;2022-08-01T13:37:56;31.70;95.10
15646;DHT22;7922;43.622;1.476;2022-08-01T13:40:27;31.70;95.40
15646;DHT22;7922;43.622;1.476;2022-08-01T13:42:55;31.90;96.00
15646;DHT22;7922;43.622;1.476;2022-08-01T13:45:22;32.00;94.10
15646;DHT22;7922;43.622;1.476;2022-08-01T13:47:48;32.20;94.70
15646;DHT22;7922;43.622;1.476;2022-08-01T13:50:14;32.10;95.00
15646;DHT22;7922;43.622;1.476;2022-08-01T13:52:40;32.00;94.20
15646;DHT22;7922;43.622;1.476;2022-08-01T13:55:06;32.00;94.70
15646;DHT22;7922;43.622;1.476;2022-08-01T13:57:32;32.10;94.30
15646;DHT22;7922;43.622;1.476;2022-08-01T13:59:58;32.20;94.60
15646;DHT22;7922;43.622;1.476;2022-08-01T14:02:27;32.30;94.10
15646;DHT22;7922;43.622;1.476;2022-08-01T14:04:56;32.20;94.10
15646;DHT22;7922;43.622;1.476;2022-08-01T14:07:24;32.10;93.90
15646;DHT22;7922;43.622;1.476;2022-08-01T14:09:49;32.20;94.10
15646;DHT22;7922;43.622;1.476;2022-08-01T14:12:15;32.30;93.60
15646;DHT22;7922;43.622;1.476;2022-08-01T14:14:41;32.40;93.60
15646;DHT22;7922;43.622;1.476;2022-08-01T14:17:07;32.50;93.10
15646;DHT22;7922;43.622;1.476;2022-08-01T14:19:32;32.50;93.30
15646;DHT22;7922;43.622;1.476;2022-08-01T14:21:58;32.60;93.20
15646;DHT22;7922;43.622;1.476;2022-08-01T14:24:24;32.60;92.70
15646;DHT22;7922;43.622;1.476;2022-08-01T14:26:51;32.40;91.90
15646;DHT22;7922;43.622;1.476;2022-08-01T14:29:17;32.30;92.20
15646;DHT22;7922;43.622;1.476;2022-08-01T14:31:43;32.60;91.90
15646;DHT22;7922;43.622;1.476;2022-08-01T14:34:08;32.60;89.20
15646;DHT22;7922;43.622;1.476;2022-08-01T14:36:34;32.70;85.80
15646;DHT22;7922;43.622;1.476;2022-08-01T14:39:00;32.70;87.00
15646;DHT22;7922;43.622;1.476;2022-08-01T14:41:26;32.70;87.90
15646;DHT22;7922;43.622;1.476;2022-08-01T14:43:52;32.80;90.50
15646;DHT22;7922;43.622;1.476;2022-08-01T14:46:17;32.80;91.40
15646;DHT22;7922;43.622;1.476;2022-08-01T14:48:43;32.70;91.40
15646;DHT22;7922;43.622;1.476;2022-08-01T14:51:09;32.50;91.20
15646;DHT22;7922;43.622;1.476;2022-08-01T14:53:35;32.50;91.10
15646;DHT22;7922;43.622;1.476;2022-08-01T14:56:05;32.50;91.30
15646;DHT22;7922;43.622;1.476;2022-08-01T14:58:32;32.40;91.00
15646;DHT22;7922;43.622;1.476;2022-08-01T15:00:58;32.70;86.00
15646;DHT22;7922;43.622;1.476;2022-08-01T15:03:24;32.80;85.70
15646;DHT22;7922;43.622;1.476;2022-08-01T15:05:49;33.00;79.00
15646;DHT22;7922;43.622;1.476;2022-08-01T15:08:15;32.90;86.90
15646;DHT22;7922;43.622;1.476;2022-08-01T15:10:41;32.70;87.80
15646;DHT22;7922;43.622;1.476;2022-08-01T15:13:07;32.70;86.10
15646;DHT22;7922;43.622;1.476;2022-08-01T15:15:33;32.70;83.30
15646;DHT22;7922;43.622;1.476;2022-08-01T15:17:59;32.80;81.30
15646;DHT22;7922;43.622;1.476;2022-08-01T15:20:24;32.90;84.40
15646;DHT22;7922;43.622;1.476;2022-08-01T15:22:52;32.80;85.60
15646;DHT22;7922;43.622;1.476;2022-08-01T15:25:18;32.80;85.10
15646;DHT22;7922;43.622;1.476;2022-08-01T15:27:44;32.60;85.00
15646;DHT22;7922;43.622;1.476;2022-08-01T15:30:11;32.60;84.90
15646;DHT22;7922;43.622;1.476;2022-08-01T15:32:36;32.60;85.20
15646;DHT22;7922;43.622;1.476;2022-08-01T15:35:02;32.70;85.20
15646;DHT22;7922;43.622;1.476;2022-08-01T15:37:28;32.70;84.50
15646;DHT22;7922;43.622;1.476;2022-08-01T15:39:54;32.80;85.20
15646;DHT22;7922;43.622;1.476;2022-08-01T15:42:19;32.80;85.30
15646;DHT22;7922;43.622;1.476;2022-08-01T15:44:45;33.00;84.60
15646;DHT22;7922;43.622;1.476;2022-08-01T15:47:11;32.80;83.60
15646;DHT22;7922;43.622;1.476;2022-08-01T15:49:37;32.80;83.90
15646;DHT22;7922;43.622;1.476;2022-08-01T15:52:04;32.80;83.60
15646;DHT22;7922;43.622;1.476;2022-08-01T15:54:30;32.90;84.50
15646;DHT22;7922;43.622;1.476;2022-08-01T15:56:55;33.00;84.00
15646;DHT22;7922;43.622;1.476;2022-08-01T15:59:21;33.10;82.90
15646;DHT22;7922;43.622;1.476;2022-08-01T16:01:47;33.00;83.40
15646;DHT22;7922;43.622;1.476;2022-08-01T16:04:14;33.00;83.30
15646;DHT22;7922;43.622;1.476;2022-08-01T16:06:40;33.00;83.20
15646;DHT22;7922;43.622;1.476;2022-08-01T16:09:06;32.90;83.40
15646;DHT22;7922;43.622;1.476;2022-08-01T16:11:32;32.90;83.50
15646;DHT22;7922;43.622;1.476;2022-08-01T16:13:58;33.10;83.30
15646;DHT22;7922;43.622;1.476;2022-08-01T16:16:24;33.00;83.40
15646;DHT22;7922;43.622;1.476;2022-08-01T16:18:50;33.00;83.20
15646;DHT22;7922;43.622;1.476;2022-08-01T16:21:16;33.00;84.20
15646;DHT22;7922;43.622;1.476;2022-08-01T16:23:43;32.90;83.30
15646;DHT22;7922;43.622;1.476;2022-08-01T16:26:09;32.90;83.20